Grandview Heights, Ohio
Current Conditions -  °F | °C
As of 3:53 AM on Saturday 22 Nov 2014 (Local Time) from KOSU Reporting Station
Overcast Overcast  
Wind Chill: 19°   Ceiling: 4900
Heat Index: 25°   Visibility: 10mi
Dew Point: 12°   Wind: 5mph
Humidity: 58%   Direction: 170°S
Pressure: 30.33"   Gusts: NA
Location:  39.987°N, 83.0425°W
Report Text: KOSU 220853Z AUTO 17004KT 10SM OVC049 M04/M11 A3033 RMK AO2 SLP283 T10391111 58013
Loading
Personal Weather Stations






























Interactive Weather Map New forecast layout! Learn more

10-Day Weather Forecast

Advertisements
Track Severe Weather on mobile